sensor_id;sensor_type;location;lat;lon;timestamp;pressure;altitude;pressure_sealevel;temperature
61390;BMP280;47260;48.274;19.814;2023-03-14T00:00:49;98740.88;;;6.13
61390;BMP280;47260;48.274;19.814;2023-03-14T00:02:22;98734.53;;;6.05
61390;BMP280;47260;48.274;19.814;2023-03-14T00:03:52;98738.19;;;6.07
61390;BMP280;47260;48.274;19.814;2023-03-14T00:05:24;98735.88;;;5.95
61390;BMP280;47260;48.274;19.814;2023-03-14T00:06:55;98733.38;;;5.86
61390;BMP280;47260;48.274;19.814;2023-03-14T00:08:26;98729.47;;;5.87
61390;BMP280;47260;48.274;19.814;2023-03-14T00:09:58;98718.09;;;5.86
61390;BMP280;47260;48.274;19.814;2023-03-14T00:11:29;98708.41;;;5.83
61390;BMP280;47260;48.274;19.814;2023-03-14T00:13:01;98711.47;;;5.76
61390;BMP280;47260;48.274;19.814;2023-03-14T00:14:32;98713.34;;;5.70
61390;BMP280;47260;48.274;19.814;2023-03-14T00:16:04;98694.47;;;5.68
61390;BMP280;47260;48.274;19.814;2023-03-14T00:17:38;98701.47;;;5.65
61390;BMP280;47260;48.274;19.814;2023-03-14T00:19:09;98694.19;;;5.66
61390;BMP280;47260;48.274;19.814;2023-03-14T00:20:41;98684.19;;;5.61
61390;BMP280;47260;48.274;19.814;2023-03-14T00:22:12;98689.16;;;5.48
61390;BMP280;47260;48.274;19.814;2023-03-14T00:23:43;98684.19;;;5.41
61390;BMP280;47260;48.274;19.814;2023-03-14T00:25:14;98679.31;;;5.34
61390;BMP280;47260;48.274;19.814;2023-03-14T00:26:46;98684.38;;;5.32
61390;BMP280;47260;48.274;19.814;2023-03-14T00:28:17;98678.03;;;5.29
61390;BMP280;47260;48.274;19.814;2023-03-14T00:29:51;98689.34;;;5.24
61390;BMP280;47260;48.274;19.814;2023-03-14T00:31:23;98677.72;;;5.22
61390;BMP280;47260;48.274;19.814;2023-03-14T00:32:56;98670.41;;;5.17
61390;BMP280;47260;48.274;19.814;2023-03-14T00:34:28;98682.44;;;5.12
61390;BMP280;47260;48.274;19.814;2023-03-14T00:35:59;98678.38;;;5.17
61390;BMP280;47260;48.274;19.814;2023-03-14T00:37:33;98681.28;;;5.39
61390;BMP280;47260;48.274;19.814;2023-03-14T00:39:04;98685.28;;;5.49
61390;BMP280;47260;48.274;19.814;2023-03-14T00:40:38;98677.34;;;5.54
61390;BMP280;47260;48.274;19.814;2023-03-14T00:42:10;98684.84;;;5.56
61390;BMP280;47260;48.274;19.814;2023-03-14T00:43:41;98681.88;;;5.48
61390;BMP280;47260;48.274;19.814;2023-03-14T00:45:13;98681.16;;;5.48
61390;BMP280;47260;48.274;19.814;2023-03-14T00:46:44;98681.88;;;5.48
61390;BMP280;47260;48.274;19.814;2023-03-14T00:48:18;98686.56;;;5.33
61390;BMP280;47260;48.274;19.814;2023-03-14T00:49:49;98679.53;;;5.30
61390;BMP280;47260;48.274;19.814;2023-03-14T00:51:23;98674.19;;;5.30
61390;BMP280;47260;48.274;19.814;2023-03-14T00:52:54;98668.22;;;5.35
61390;BMP280;47260;48.274;19.814;2023-03-14T00:54:26;98670.25;;;5.26
61390;BMP280;47260;48.274;19.814;2023-03-14T00:56:01;98662.50;;;5.22
61390;BMP280;47260;48.274;19.814;2023-03-14T00:57:33;98661.94;;;5.18
61390;BMP280;47260;48.274;19.814;2023-03-14T00:59:04;98649.22;;;5.48
61390;BMP280;47260;48.274;19.814;2023-03-14T01:00:35;98639.44;;;5.39
61390;BMP280;47260;48.274;19.814;2023-03-14T01:02:06;98645.19;;;5.32
61390;BMP280;47260;48.274;19.814;2023-03-14T01:03:39;98642.13;;;5.19
61390;BMP280;47260;48.274;19.814;2023-03-14T01:05:11;98637.13;;;5.27
61390;BMP280;47260;48.274;19.814;2023-03-14T01:06:42;98624.50;;;5.22
61390;BMP280;47260;48.274;19.814;2023-03-14T01:08:14;98614.25;;;5.15
61390;BMP280;47260;48.274;19.814;2023-03-14T01:09:46;98611.88;;;5.17
61390;BMP280;47260;48.274;19.814;2023-03-14T01:11:19;98607.34;;;5.23
61390;BMP280;47260;48.274;19.814;2023-03-14T01:12:50;98611.13;;;5.36
61390;BMP280;47260;48.274;19.814;2023-03-14T01:14:21;98608.56;;;5.47
61390;BMP280;47260;48.274;19.814;2023-03-14T01:15:53;98606.19;;;5.55
61390;BMP280;47260;48.274;19.814;2023-03-14T01:17:23;98603.13;;;5.62
61390;BMP280;47260;48.274;19.814;2023-03-14T01:18:56;98598.84;;;5.70
61390;BMP280;47260;48.274;19.814;2023-03-14T01:20:28;98601.03;;;5.72
61390;BMP280;47260;48.274;19.814;2023-03-14T01:21:59;98595.41;;;5.64
61390;BMP280;47260;48.274;19.814;2023-03-14T01:23:31;98596.19;;;5.70
61390;BMP280;47260;48.274;19.814;2023-03-14T01:25:01;98590.63;;;5.68
61390;BMP280;47260;48.274;19.814;2023-03-14T01:26:34;98591.00;;;5.61
61390;BMP280;47260;48.274;19.814;2023-03-14T01:28:07;98593.22;;;5.37
61390;BMP280;47260;48.274;19.814;2023-03-14T01:29:39;98573.97;;;5.22
61390;BMP280;47260;48.274;19.814;2023-03-14T01:31:10;98576.84;;;5.24
61390;BMP280;47260;48.274;19.814;2023-03-14T01:32:42;98572.06;;;5.28
61390;BMP280;47260;48.274;19.814;2023-03-14T01:34:15;98562.38;;;5.25
61390;BMP280;47260;48.274;19.814;2023-03-14T01:35:49;98564.19;;;5.39
61390;BMP280;47260;48.274;19.814;2023-03-14T01:37:19;98559.28;;;5.32
61390;BMP280;47260;48.274;19.814;2023-03-14T01:38:51;98556.88;;;5.34
61390;BMP280;47260;48.274;19.814;2023-03-14T01:40:23;98546.47;;;5.30
61390;BMP280;47260;48.274;19.814;2023-03-14T01:41:55;98537.91;;;5.21
61390;BMP280;47260;48.274;19.814;2023-03-14T01:43:27;98541.16;;;5.30
61390;BMP280;47260;48.274;19.814;2023-03-14T01:44:59;98546.06;;;5.37
61390;BMP280;47260;48.274;19.814;2023-03-14T01:46:32;98540.00;;;5.37
61390;BMP280;47260;48.274;19.814;2023-03-14T01:48:05;98540.47;;;5.41
61390;BMP280;47260;48.274;19.814;2023-03-14T01:49:38;98531.28;;;5.36
61390;BMP280;47260;48.274;19.814;2023-03-14T01:51:16;98528.97;;;5.24
61390;BMP280;47260;48.274;19.814;2023-03-14T01:52:48;98525.06;;;5.19
61390;BMP280;47260;48.274;19.814;2023-03-14T01:54:23;98523.56;;;5.13
61390;BMP280;47260;48.274;19.814;2023-03-14T01:55:57;98523.00;;;5.09
61390;BMP280;47260;48.274;19.814;2023-03-14T01:57:28;98516.88;;;5.23
61390;BMP280;47260;48.274;19.814;2023-03-14T01:59:01;98512.94;;;5.18
61390;BMP280;47260;48.274;19.814;2023-03-14T02:00:33;98518.56;;;5.20
61390;BMP280;47260;48.274;19.814;2023-03-14T02:02:05;98503.22;;;5.35
61390;BMP280;47260;48.274;19.814;2023-03-14T02:03:41;98504.63;;;5.62
61390;BMP280;47260;48.274;19.814;2023-03-14T02:05:16;98505.09;;;5.60
61390;BMP280;47260;48.274;19.814;2023-03-14T02:06:54;98491.19;;;5.45
61390;BMP280;47260;48.274;19.814;2023-03-14T02:08:31;98493.63;;;5.49
61390;BMP280;47260;48.274;19.814;2023-03-14T02:10:07;98494.53;;;5.40
61390;BMP280;47260;48.274;19.814;2023-03-14T02:11:40;98499.44;;;5.47
61390;BMP280;47260;48.274;19.814;2023-03-14T02:13:41;98498.59;;;5.36
61390;BMP280;47260;48.274;19.814;2023-03-14T02:15:32;98494.44;;;5.29
61390;BMP280;47260;48.274;19.814;2023-03-14T02:17:08;98481.81;;;5.50
61390;BMP280;47260;48.274;19.814;2023-03-14T02:19:00;98484.94;;;5.54
61390;BMP280;47260;48.274;19.814;2023-03-14T02:20:47;98468.94;;;5.80
61390;BMP280;47260;48.274;19.814;2023-03-14T02:22:20;98469.88;;;5.77
61390;BMP280;47260;48.274;19.814;2023-03-14T02:24:04;98465.81;;;5.87
61390;BMP280;47260;48.274;19.814;2023-03-14T02:25:45;98471.34;;;5.78
61390;BMP280;47260;48.274;19.814;2023-03-14T02:27:20;98459.22;;;5.77
61390;BMP280;47260;48.274;19.814;2023-03-14T02:28:52;98472.13;;;5.89
61390;BMP280;47260;48.274;19.814;2023-03-14T02:30:25;98466.78;;;5.89
61390;BMP280;47260;48.274;19.814;2023-03-14T02:31:57;98470.00;;;5.93
61390;BMP280;47260;48.274;19.814;2023-03-14T02:33:28;98455.47;;;6.00
61390;BMP280;47260;48.274;19.814;2023-03-14T02:35:01;98459.09;;;5.97
61390;BMP280;47260;48.274;19.814;2023-03-14T02:36:34;98460.56;;;6.03
61390;BMP280;47260;48.274;19.814;2023-03-14T02:38:07;98458.13;;;6.00
61390;BMP280;47260;48.274;19.814;2023-03-14T02:39:44;98458.66;;;5.98
61390;BMP280;47260;48.274;19.814;2023-03-14T02:41:19;98452.78;;;5.94
61390;BMP280;47260;48.274;19.814;2023-03-14T02:43:04;98450.84;;;5.95
61390;BMP280;47260;48.274;19.814;2023-03-14T02:44:45;98457.38;;;5.94
61390;BMP280;47260;48.274;19.814;2023-03-14T02:46:19;98462.00;;;5.93
61390;BMP280;47260;48.274;19.814;2023-03-14T02:47:52;98459.06;;;5.91
61390;BMP280;47260;48.274;19.814;2023-03-14T02:49:24;98460.53;;;5.92
61390;BMP280;47260;48.274;19.814;2023-03-14T02:50:57;98460.31;;;5.96
61390;BMP280;47260;48.274;19.814;2023-03-14T02:52:31;98445.31;;;6.04
61390;BMP280;47260;48.274;19.814;2023-03-14T02:54:02;98453.06;;;6.02
61390;BMP280;47260;48.274;19.814;2023-03-14T02:55:34;98448.03;;;6.09
61390;BMP280;47260;48.274;19.814;2023-03-14T02:57:11;98454.28;;;6.06
61390;BMP280;47260;48.274;19.814;2023-03-14T02:58:44;98452.84;;;6.05
61390;BMP280;47260;48.274;19.814;2023-03-14T03:00:24;98439.78;;;6.13
61390;BMP280;47260;48.274;19.814;2023-03-14T03:01:56;98430.56;;;6.08
61390;BMP280;47260;48.274;19.814;2023-03-14T03:03:29;98422.56;;;6.08
61390;BMP280;47260;48.274;19.814;2023-03-14T03:05:00;98417.53;;;6.10
61390;BMP280;47260;48.274;19.814;2023-03-14T03:06:31;98417.00;;;6.06
61390;BMP280;47260;48.274;19.814;2023-03-14T03:08:04;98417.47;;;6.05
61390;BMP280;47260;48.274;19.814;2023-03-14T03:09:35;98407.81;;;6.07
61390;BMP280;47260;48.274;19.814;2023-03-14T03:11:07;98412.19;;;6.10
61390;BMP280;47260;48.274;19.814;2023-03-14T03:12:39;98416.78;;;6.10
61390;BMP280;47260;48.274;19.814;2023-03-14T03:14:11;98416.25;;;6.06
61390;BMP280;47260;48.274;19.814;2023-03-14T03:15:43;98412.66;;;6.09
61390;BMP280;47260;48.274;19.814;2023-03-14T03:17:14;98410.69;;;6.04
61390;BMP280;47260;48.274;19.814;2023-03-14T03:18:46;98405.88;;;6.08
61390;BMP280;47260;48.274;19.814;2023-03-14T03:20:16;98403.47;;;6.10
61390;BMP280;47260;48.274;19.814;2023-03-14T03:21:48;98395.94;;;6.08
61390;BMP280;47260;48.274;19.814;2023-03-14T03:23:19;98400.56;;;6.08
61390;BMP280;47260;48.274;19.814;2023-03-14T03:24:51;98392.06;;;6.09
61390;BMP280;47260;48.274;19.814;2023-03-14T03:26:22;98395.94;;;6.14
61390;BMP280;47260;48.274;19.814;2023-03-14T03:27:54;98396.66;;;6.09
61390;BMP280;47260;48.274;19.814;2023-03-14T03:29:26;98394.25;;;6.16
61390;BMP280;47260;48.274;19.814;2023-03-14T03:30:57;98382.16;;;6.15
61390;BMP280;47260;48.274;19.814;2023-03-14T03:32:29;98383.34;;;6.14
61390;BMP280;47260;48.274;19.814;2023-03-14T03:34:00;98404.41;;;6.12
61390;BMP280;47260;48.274;19.814;2023-03-14T03:35:32;98398.84;;;6.16
61390;BMP280;47260;48.274;19.814;2023-03-14T03:37:04;98394.00;;;6.14
61390;BMP280;47260;48.274;19.814;2023-03-14T03:38:39;98394.00;;;6.14
61390;BMP280;47260;48.274;19.814;2023-03-14T03:40:11;98394.00;;;6.14
61390;BMP280;47260;48.274;19.814;2023-03-14T03:41:42;98400.09;;;6.20
61390;BMP280;47260;48.274;19.814;2023-03-14T03:43:15;98406.63;;;6.19
61390;BMP280;47260;48.274;19.814;2023-03-14T03:44:50;98403.25;;;6.24
61390;BMP280;47260;48.274;19.814;2023-03-14T03:46:21;98407.56;;;6.16
61390;BMP280;47260;48.274;19.814;2023-03-14T03:47:53;98399.59;;;6.16
61390;BMP280;47260;48.274;19.814;2023-03-14T03:49:28;98407.81;;;6.07
61390;BMP280;47260;48.274;19.814;2023-03-14T03:50:59;98398.88;;;6.10
61390;BMP280;47260;48.274;19.814;2023-03-14T03:52:31;98399.34;;;6.14
61390;BMP280;47260;48.274;19.814;2023-03-14T03:54:03;98402.72;;;6.15
61390;BMP280;47260;48.274;19.814;2023-03-14T03:55:37;98392.38;;;6.28
61390;BMP280;47260;48.274;19.814;2023-03-14T03:57:12;98381.69;;;6.22
61390;BMP280;47260;48.274;19.814;2023-03-14T03:58:44;98386.53;;;6.24
61390;BMP280;47260;48.274;19.814;2023-03-14T04:00:17;98378.31;;;6.22
61390;BMP280;47260;48.274;19.814;2023-03-14T04:01:49;98366.19;;;6.21
61390;BMP280;47260;48.274;19.814;2023-03-14T04:03:20;98368.34;;;6.17
61390;BMP280;47260;48.274;19.814;2023-03-14T04:04:52;98370.50;;;6.13
61390;BMP280;47260;48.274;19.814;2023-03-14T04:06:23;98364.22;;;6.10
61390;BMP280;47260;48.274;19.814;2023-03-14T04:07:57;98363.00;;;6.17
61390;BMP280;47260;48.274;19.814;2023-03-14T04:09:31;98361.09;;;6.17
61390;BMP280;47260;48.274;19.814;2023-03-14T04:11:21;98374.16;;;6.15
61390;BMP280;47260;48.274;19.814;2023-03-14T04:12:58;98375.59;;;6.16
61390;BMP280;47260;48.274;19.814;2023-03-14T04:14:33;98366.16;;;6.15
61390;BMP280;47260;48.274;19.814;2023-03-14T04:16:15;98368.56;;;6.13
61390;BMP280;47260;48.274;19.814;2023-03-14T04:17:47;98378.28;;;6.16
61390;BMP280;47260;48.274;19.814;2023-03-14T04:19:20;98366.38;;;6.06
61390;BMP280;47260;48.274;19.814;2023-03-14T04:20:53;98368.81;;;6.10
61390;BMP280;47260;48.274;19.814;2023-03-14T04:22:28;98369.78;;;6.12
61390;BMP280;47260;48.274;19.814;2023-03-14T04:23:59;98373.63;;;6.06
61390;BMP280;47260;48.274;19.814;2023-03-14T04:25:34;98379.69;;;6.06
61390;BMP280;47260;48.274;19.814;2023-03-14T04:27:08;98373.63;;;6.00
61390;BMP280;47260;48.274;19.814;2023-03-14T04:28:40;98369.22;;;5.92
61390;BMP280;47260;48.274;19.814;2023-03-14T04:30:13;98371.91;;;5.92
61390;BMP280;47260;48.274;19.814;2023-03-14T04:32:00;98375.50;;;5.89
61390;BMP280;47260;48.274;19.814;2023-03-14T04:33:32;98383.97;;;5.87
61390;BMP280;47260;48.274;19.814;2023-03-14T04:35:03;98386.88;;;5.89
61390;BMP280;47260;48.274;19.814;2023-03-14T04:36:35;98375.97;;;5.82
61390;BMP280;47260;48.274;19.814;2023-03-14T04:38:10;98369.91;;;5.87
61390;BMP280;47260;48.274;19.814;2023-03-14T04:39:41;98380.31;;;5.79
61390;BMP280;47260;48.274;19.814;2023-03-14T04:41:19;98369.41;;;5.77
61390;BMP280;47260;48.274;19.814;2023-03-14T04:42:51;98371.56;;;5.73
61390;BMP280;47260;48.274;19.814;2023-03-14T04:44:23;98355.59;;;5.68
61390;BMP280;47260;48.274;19.814;2023-03-14T04:45:57;98358.97;;;5.68
61390;BMP280;47260;48.274;19.814;2023-03-14T04:47:29;98358.72;;;5.72
61390;BMP280;47260;48.274;19.814;2023-03-14T04:49:01;98351.94;;;5.71
61390;BMP280;47260;48.274;19.814;2023-03-14T04:50:33;98349.28;;;5.71
61390;BMP280;47260;48.274;19.814;2023-03-14T04:52:05;98361.13;;;5.69
61390;BMP280;47260;48.274;19.814;2023-03-14T04:53:39;98360.44;;;5.75
61390;BMP280;47260;48.274;19.814;2023-03-14T04:55:14;98364.34;;;5.79
61390;BMP280;47260;48.274;19.814;2023-03-14T04:56:46;98362.91;;;5.78
61390;BMP280;47260;48.274;19.814;2023-03-14T04:58:18;98361.19;;;5.75
61390;BMP280;47260;48.274;19.814;2023-03-14T04:59:51;98361.47;;;5.83
61390;BMP280;47260;48.274;19.814;2023-03-14T05:01:50;98355.16;;;5.80
61390;BMP280;47260;48.274;19.814;2023-03-14T05:03:46;98352.50;;;5.80
61390;BMP280;47260;48.274;19.814;2023-03-14T05:05:22;98352.19;;;5.73
61390;BMP280;47260;48.274;19.814;2023-03-14T05:07:22;98347.13;;;5.69
61390;BMP280;47260;48.274;19.814;2023-03-14T05:09:22;98345.66;;;5.74
61390;BMP280;47260;48.274;19.814;2023-03-14T05:11:23;98354.13;;;5.72
61390;BMP280;47260;48.274;19.814;2023-03-14T05:13:13;98340.09;;;5.72
61390;BMP280;47260;48.274;19.814;2023-03-14T05:15:07;98338.88;;;5.73
61390;BMP280;47260;48.274;19.814;2023-03-14T05:16:58;98335.97;;;5.65
61390;BMP280;47260;48.274;19.814;2023-03-14T05:18:42;98339.56;;;5.62
61390;BMP280;47260;48.274;19.814;2023-03-14T05:20:35;98333.75;;;5.63
61390;BMP280;47260;48.274;19.814;2023-03-14T05:22:25;98331.84;;;5.64
61390;BMP280;47260;48.274;19.814;2023-03-14T05:24:15;98330.63;;;5.65
61390;BMP280;47260;48.274;19.814;2023-03-14T05:26:00;98329.22;;;5.75
61390;BMP280;47260;48.274;19.814;2023-03-14T05:27:40;98333.84;;;5.80
61390;BMP280;47260;48.274;19.814;2023-03-14T05:29:28;98326.09;;;5.82
61390;BMP280;47260;48.274;19.814;2023-03-14T05:31:18;98326.34;;;5.84
61390;BMP280;47260;48.274;19.814;2023-03-14T05:32:50;98322.97;;;5.89
61390;BMP280;47260;48.274;19.814;2023-03-14T05:34:45;98322.03;;;5.92
61390;BMP280;47260;48.274;19.814;2023-03-14T05:36:42;98321.09;;;6.01
61390;BMP280;47260;48.274;19.814;2023-03-14T05:38:25;98316.25;;;6.05
61390;BMP280;47260;48.274;19.814;2023-03-14T05:40:12;98305.59;;;6.05
61390;BMP280;47260;48.274;19.814;2023-03-14T05:42:02;98316.50;;;6.12
61390;BMP280;47260;48.274;19.814;2023-03-14T05:44:09;98297.63;;;6.21
61390;BMP280;47260;48.274;19.814;2023-03-14T05:46:02;98301.03;;;6.27
61390;BMP280;47260;48.274;19.814;2023-03-14T05:47:59;98305.63;;;6.32
61390;BMP280;47260;48.274;19.814;2023-03-14T05:49:46;98306.38;;;6.38
61390;BMP280;47260;48.274;19.814;2023-03-14T05:51:34;98302.28;;;6.60
61390;BMP280;47260;48.274;19.814;2023-03-14T05:53:18;98305.91;;;6.73
61390;BMP280;47260;48.274;19.814;2023-03-14T05:55:04;98298.63;;;6.68
61390;BMP280;47260;48.274;19.814;2023-03-14T05:56:42;98308.34;;;6.60
61390;BMP280;47260;48.274;19.814;2023-03-14T05:58:31;98304.22;;;6.65
61390;BMP280;47260;48.274;19.814;2023-03-14T06:00:28;98298.59;;;6.96
61390;BMP280;47260;48.274;19.814;2023-03-14T06:02:14;98303.91;;;6.96
61390;BMP280;47260;48.274;19.814;2023-03-14T06:03:55;98298.34;;;6.94
61390;BMP280;47260;48.274;19.814;2023-03-14T06:05:27;98303.00;;;6.88
61390;BMP280;47260;48.274;19.814;2023-03-14T06:07:03;98310.97;;;6.82
61390;BMP280;47260;48.274;19.814;2023-03-14T06:08:37;98302.25;;;6.93
61390;BMP280;47260;48.274;19.814;2023-03-14T06:10:10;98294.69;;;7.13
61390;BMP280;47260;48.274;19.814;2023-03-14T06:11:42;98293.94;;;7.24
61390;BMP280;47260;48.274;19.814;2023-03-14T06:13:15;98299.97;;;7.30
61390;BMP280;47260;48.274;19.814;2023-03-14T06:14:47;98294.41;;;7.28
61390;BMP280;47260;48.274;19.814;2023-03-14T06:16:18;98297.88;;;7.01
61390;BMP280;47260;48.274;19.814;2023-03-14T06:17:50;98298.66;;;7.59
61390;BMP280;47260;48.274;19.814;2023-03-14T06:19:22;98303.31;;;7.99
61390;BMP280;47260;48.274;19.814;2023-03-14T06:20:54;98291.50;;;8.24
61390;BMP280;47260;48.274;19.814;2023-03-14T06:22:29;98302.44;;;8.56
61390;BMP280;47260;48.274;19.814;2023-03-14T06:24:02;98308.97;;;9.09
61390;BMP280;47260;48.274;19.814;2023-03-14T06:25:42;98303.97;;;9.42
61390;BMP280;47260;48.274;19.814;2023-03-14T06:27:14;98294.31;;;9.15
61390;BMP280;47260;48.274;19.814;2023-03-14T06:28:45;98305.81;;;9.10
61390;BMP280;47260;48.274;19.814;2023-03-14T06:30:17;98305.34;;;8.82
61390;BMP280;47260;48.274;19.814;2023-03-14T06:31:49;98307.66;;;8.67
61390;BMP280;47260;48.274;19.814;2023-03-14T06:33:22;98313.34;;;8.58
61390;BMP280;47260;48.274;19.814;2023-03-14T06:34:53;98307.81;;;8.50
61390;BMP280;47260;48.274;19.814;2023-03-14T06:36:25;98304.56;;;8.33
61390;BMP280;47260;48.274;19.814;2023-03-14T06:37:57;98301.31;;;8.10
61390;BMP280;47260;48.274;19.814;2023-03-14T06:39:30;98303.81;;;7.97
61390;BMP280;47260;48.274;19.814;2023-03-14T06:41:09;98296.53;;;7.98
61390;BMP280;47260;48.274;19.814;2023-03-14T06:42:46;98292.16;;;7.95
61390;BMP280;47260;48.274;19.814;2023-03-14T06:44:20;98298.16;;;8.06
61390;BMP280;47260;48.274;19.814;2023-03-14T06:45:51;98297.22;;;8.04
61390;BMP280;47260;48.274;19.814;2023-03-14T06:47:23;98290.91;;;7.96
61390;BMP280;47260;48.274;19.814;2023-03-14T06:48:54;98290.13;;;8.06
61390;BMP280;47260;48.274;19.814;2023-03-14T06:50:26;98291.13;;;8.03
61390;BMP280;47260;48.274;19.814;2023-03-14T06:51:59;98290.13;;;8.06
61390;BMP280;47260;48.274;19.814;2023-03-14T06:53:30;98290.03;;;7.88
61390;BMP280;47260;48.274;19.814;2023-03-14T06:55:06;98292.00;;;7.82
61390;BMP280;47260;48.274;19.814;2023-03-14T06:56:38;98285.44;;;7.83
61390;BMP280;47260;48.274;19.814;2023-03-14T06:58:09;98286.38;;;7.85
61390;BMP280;47260;48.274;19.814;2023-03-14T06:59:45;98289.06;;;7.85
61390;BMP280;47260;48.274;19.814;2023-03-14T07:01:19;98281.53;;;7.84
61390;BMP280;47260;48.274;19.814;2023-03-14T07:02:50;98292.50;;;7.80
61390;BMP280;47260;48.274;19.814;2023-03-14T07:04:28;98287.91;;;7.75
61390;BMP280;47260;48.274;19.814;2023-03-14T07:06:00;98297.16;;;7.69
61390;BMP280;47260;48.274;19.814;2023-03-14T07:07:31;98291.34;;;7.70
61390;BMP280;47260;48.274;19.814;2023-03-14T07:09:03;98284.53;;;7.69
61390;BMP280;47260;48.274;19.814;2023-03-14T07:10:38;98300.34;;;7.62
61390;BMP280;47260;48.274;19.814;2023-03-14T07:12:11;98295.53;;;7.55
61390;BMP280;47260;48.274;19.814;2023-03-14T07:13:43;98294.31;;;7.56
61390;BMP280;47260;48.274;19.814;2023-03-14T07:15:15;98299.13;;;7.68
61390;BMP280;47260;48.274;19.814;2023-03-14T07:16:46;98300.09;;;7.65
61390;BMP280;47260;48.274;19.814;2023-03-14T07:18:18;98293.78;;;7.68
61390;BMP280;47260;48.274;19.814;2023-03-14T07:19:49;98296.88;;;7.78
61390;BMP280;47260;48.274;19.814;2023-03-14T07:21:21;98302.94;;;7.78
61390;BMP280;47260;48.274;19.814;2023-03-14T07:22:52;98295.91;;;7.75
61390;BMP280;47260;48.274;19.814;2023-03-14T07:24:34;98302.03;;;7.70
61390;BMP280;47260;48.274;19.814;2023-03-14T07:26:07;98297.41;;;7.65
61390;BMP280;47260;48.274;19.814;2023-03-14T07:27:42;98287.72;;;7.62
61390;BMP280;47260;48.274;19.814;2023-03-14T07:29:14;98291.78;;;7.74
61390;BMP280;47260;48.274;19.814;2023-03-14T07:30:46;98295.19;;;7.75
61390;BMP280;47260;48.274;19.814;2023-03-14T07:32:26;98293.78;;;7.68
61390;BMP280;47260;48.274;19.814;2023-03-14T07:33:58;98305.13;;;7.80
61390;BMP280;47260;48.274;19.814;2023-03-14T07:35:33;98295.59;;;7.90
61390;BMP280;47260;48.274;19.814;2023-03-14T07:37:05;98291.47;;;7.83
61390;BMP280;47260;48.274;19.814;2023-03-14T07:38:37;98293.91;;;7.92
61390;BMP280;47260;48.274;19.814;2023-03-14T07:40:31;98296.22;;;8.07
61390;BMP280;47260;48.274;19.814;2023-03-14T07:42:04;98290.13;;;8.06
61390;BMP280;47260;48.274;19.814;2023-03-14T07:44:02;98290.63;;;8.10
61390;BMP280;47260;48.274;19.814;2023-03-14T07:45:33;98283.63;;;8.02
61390;BMP280;47260;48.274;19.814;2023-03-14T07:47:05;98289.63;;;8.13
61390;BMP280;47260;48.274;19.814;2023-03-14T07:48:36;98284.22;;;8.25
61390;BMP280;47260;48.274;19.814;2023-03-14T07:50:08;98285.28;;;8.40
61390;BMP280;47260;48.274;19.814;2023-03-14T07:51:40;98272.47;;;8.63
61390;BMP280;47260;48.274;19.814;2023-03-14T07:53:14;98275.22;;;8.76
61390;BMP280;47260;48.274;19.814;2023-03-14T07:54:45;98278.84;;;8.78
61390;BMP280;47260;48.274;19.814;2023-03-14T07:56:17;98283.75;;;8.50
61390;BMP280;47260;48.274;19.814;2023-03-14T07:57:49;98271.88;;;8.46
61390;BMP280;47260;48.274;19.814;2023-03-14T07:59:21;98277.66;;;8.50
61390;BMP280;47260;48.274;19.814;2023-03-14T08:00:53;98270.94;;;8.67
61390;BMP280;47260;48.274;19.814;2023-03-14T08:02:23;98269.31;;;8.59
61390;BMP280;47260;48.274;19.814;2023-03-14T08:03:55;98270.94;;;8.67
61390;BMP280;47260;48.274;19.814;2023-03-14T08:05:26;98274.56;;;8.70
61390;BMP280;47260;48.274;19.814;2023-03-14T08:06:58;98270.13;;;8.78
61390;BMP280;47260;48.274;19.814;2023-03-14T08:08:29;98273.47;;;8.84
61390;BMP280;47260;48.274;19.814;2023-03-14T08:10:01;98276.03;;;8.95
61390;BMP280;47260;48.274;19.814;2023-03-14T08:11:32;98280.59;;;9.00
61390;BMP280;47260;48.274;19.814;2023-03-14T08:13:05;98273.16;;;8.93
61390;BMP280;47260;48.274;19.814;2023-03-14T08:14:37;98275.72;;;8.98
61390;BMP280;47260;48.274;19.814;2023-03-14T08:16:08;98271.94;;;8.88
61390;BMP280;47260;48.274;19.814;2023-03-14T08:17:40;98271.56;;;8.79
61390;BMP280;47260;48.274;19.814;2023-03-14T08:19:11;98272.84;;;8.72
61390;BMP280;47260;48.274;19.814;2023-03-14T08:20:43;98268.41;;;8.80
61390;BMP280;47260;48.274;19.814;2023-03-14T08:22:14;98267.53;;;9.15
61390;BMP280;47260;48.274;19.814;2023-03-14T08:23:46;98274.41;;;9.11
61390;BMP280;47260;48.274;19.814;2023-03-14T08:25:19;98270.69;;;9.38
61390;BMP280;47260;48.274;19.814;2023-03-14T08:26:51;98276.66;;;9.44
61390;BMP280;47260;48.274;19.814;2023-03-14T08:28:24;98276.09;;;9.51
61390;BMP280;47260;48.274;19.814;2023-03-14T08:30:00;98272.19;;;9.70
61390;BMP280;47260;48.274;19.814;2023-03-14T08:31:32;98270.34;;;9.78
61390;BMP280;47260;48.274;19.814;2023-03-14T08:33:03;98260.59;;;10.13
61390;BMP280;47260;48.274;19.814;2023-03-14T08:34:34;98256.66;;;10.14
61390;BMP280;47260;48.274;19.814;2023-03-14T08:36:06;98259.34;;;10.14
61390;BMP280;47260;48.274;19.814;2023-03-14T08:37:38;98249.63;;;10.68
61390;BMP280;47260;48.274;19.814;2023-03-14T08:39:10;98248.06;;;10.47
61390;BMP280;47260;48.274;19.814;2023-03-14T08:40:41;98248.09;;;10.60
61390;BMP280;47260;48.274;19.814;2023-03-14T08:42:13;98237.97;;;10.92
61390;BMP280;47260;48.274;19.814;2023-03-14T08:43:45;98245.47;;;11.07
61390;BMP280;47260;48.274;19.814;2023-03-14T08:45:17;98241.22;;;11.24
61390;BMP280;47260;48.274;19.814;2023-03-14T08:46:48;98235.66;;;11.56
61390;BMP280;47260;48.274;19.814;2023-03-14T08:48:20;98230.69;;;11.26
61390;BMP280;47260;48.274;19.814;2023-03-14T08:49:52;98221.34;;;11.40
61390;BMP280;47260;48.274;19.814;2023-03-14T08:51:23;98227.66;;;11.43
61390;BMP280;47260;48.274;19.814;2023-03-14T08:52:55;98228.34;;;11.43
61390;BMP280;47260;48.274;19.814;2023-03-14T08:54:28;98221.69;;;11.99
61390;BMP280;47260;48.274;19.814;2023-03-14T08:55:59;98222.00;;;11.88
61390;BMP280;47260;48.274;19.814;2023-03-14T08:57:31;98219.91;;;12.22
61390;BMP280;47260;48.274;19.814;2023-03-14T08:59:04;98220.69;;;12.30
61390;BMP280;47260;48.274;19.814;2023-03-14T09:00:35;98224.97;;;13.04
61390;BMP280;47260;48.274;19.814;2023-03-14T09:02:08;98227.53;;;12.38
61390;BMP280;47260;48.274;19.814;2023-03-14T09:03:40;98231.22;;;12.56
61390;BMP280;47260;48.274;19.814;2023-03-14T09:05:12;98219.75;;;12.99
61390;BMP280;47260;48.274;19.814;2023-03-14T09:06:43;98224.84;;;13.17